Weerspreuk van de dag: Als de kat in januari in de zon ligt, ligt ze in februari achter de kachel.
Het weer levert geen direct gevaar op.    Er zijn geen waarschuwingen afgegeven.

Onweer radar Meer informatie blitzortung!


Regen radar Meer informatie rain snow radar


Bekijk deze sites ook eens:

FPL Automotive (TIP)

Autostekkers.nl (TIP)

Over Luyksgestel

De Kempen, mijn omgeving

BOL.com

Weerstation Noordbergum

Inktweb

Weerstation Hapert

Weerstation Hoogeloon

Weerstation Son&Breugel

Weerstation Castaert

Nieuw horloge

Weerstation Tilburg Reeshof

Weerstation Scheulder

Weerverwachting Samos

Samos actueel

Weerwoord (forum)

Griekenlandforum

Vakantie naar Samos

Winterzon

Canon

Wolven in Nederland



METAR rapporten vliegvelden

   
EBAW - Antwerp
Gewijzigd: 26-01-2020 14:50
Licht bewolkt  
Licht bewolkt  
   Wind: ZZW 20.4 km/h
Wind: ZZW 20.4 km/h
Temperatuur: 10°C
Voelt als: 7°C
Dauwpunt: 6°C
Vochtigheid: 76%
Barometer: 1014 hPa
Bewolking: Licht bewolkt
Zicht: meer dan 10 km
Bewolking: Licht bewolkt 2500 ft
EBAW 261350Z 20011KT 9999 FEW025 10/06 Q1014 NOSIG
EBLG - Liège
Gewijzigd: 26-01-2020 14:50
Helder  
Helder  
   Wind: ZZW 20.4 km/h
Wind: ZZW 20.4 km/h
Temperatuur: 10°C
Voelt als: 7°C
Dauwpunt: 4°C
Vochtigheid: 67%
Barometer: 1014 hPa
Zicht: meer dan 10 km
Bewolking: Helder
EBLG 261350Z 20011KT CAVOK 10/04 Q1014 NOSIG
EBCV - Mons/Bergen
Gewijzigd: 25-01-2020 12:25
Verouderd
Mist, Bewolking  
Mist, Bewolking  
   Wind: Zuiden 7.4 km/h
Wind: Zuiden 7.4 km/h
Temperatuur: 2°C
Voelt als: 0°C
Dauwpunt: 2°C
Vochtigheid: 100%
Barometer: 1022 hPa
Bewolking: Bewolking
Zicht: 0 km
Bewolking: Bewolking 200 ft
EBCV 251125Z AUTO 18004KT 0400 FG OVC002/// 02/02 Q1022 RED
EHBK - Maastricht
Gewijzigd: 26-01-2020 14:55
Gedeeltelijk bewolkt  
Gedeeltelijk bewolkt  
   Wind: Zuiden 18.5 km/h
Wind: Zuiden 18.5 km/h
Temperatuur: 10°C
Voelt als: 8°C
Dauwpunt: 5°C
Vochtigheid: 71%
Barometer: 1014 hPa
Bewolking: Gedeeltelijk bewolkt
Zicht: meer dan 10 km
Bewolking: Gedeeltelijk bewolkt
EHBK 261355Z AUTO 19010KT 170V230 9999 NSC 10/05 Q1014 NOSIG
ELLX - Luxemburg
Gewijzigd: 26-01-2020 14:50
Mist, Bewolking  
Mist, Bewolking  
   Wind: ZO 9.3 km/h
Wind: ZO 9.3 km/h
Temperatuur: 3°C
Voelt als: 1°C
Dauwpunt: 3°C
Vochtigheid: 100%
Barometer: 1016 hPa
Bewolking: Bewolking
Zicht: 0 km
Bewolking: Bewolking 200 ft
ELLX 261350Z 14005KT 120V180 0050 R24/0225N FG VV002 03/03 Q1016 NOSIG
EBOS - Oostende
Gewijzigd: 26-01-2020 14:50
Grotendeels bewolkt  
Grotendeels bewolkt  
   Wind: ZZW 20.4 km/h
Wind: ZZW 20.4 km/h
Temperatuur: 7°C
Voelt als: 3°C
Dauwpunt: 5°C
Vochtigheid: 87%
Barometer: 1013 hPa
Bewolking: Grotendeels bewolkt
Zicht: 6 km
Bewolking: Licht bewolkt 800 ft,
Grotendeels bewolkt 900 ft
EBOS 261350Z 20011KT 6000 FEW008 BKN009 07/05 Q1013 TEMPO SCT009

Script ontwikkeld door  Saratoga-weather.org Aangepast voor de template door  Weerstation Leuven

U vindt ons ook hier:

Het Weer Aktueel

UK Metoffice

European Weather Network

Weather Underground

AWEKAS